Terminal Aerodrome Forecast
Issued by NWS Mt. Holly, NJ

Home | Current Version | Previous Version | Text Only | Print | Product List | Glossary On
Versions: 1 2 3 4 5 6 7 8 9 10 11 12 13 14 15 16 17 18 19
000
FTUS41 KPHI 252100 AAA
TAFRDG
TAF AMD
KRDG 252106Z 2521/2618 24009KT P6SM SKC
     FM252300 28006KT P6SM BKN040
     FM261400 30016G25KT P6SM SCT050=

USA.gov is the U.S. government's official web portal to all federal, state and local government web resources and services.